Time;durP1;ratioP1;P1;durP2;ratioP2;P2;SDS_P1;SDS_P2;PMS_P1;PMS_P2;Temp;Humidity;BMP_temperature;BMP_pressure;BME280_temperature;BME280_humidity;BME280_pressure;Samples;Min_cycle;Max_cycle;Signal;HPM_P1;HPM_P2
2021/05/12 00:02:23;;;;;;;3.60;3.00;;;11.10;68.10;;;;;;4976009;28;20031;-82
2021/05/12 00:04:49;;;;;;;3.38;2.80;;;11.10;68.30;;;;;;4974808;28;20042;-83
2021/05/12 00:07:15;;;;;;;3.10;2.83;;;11.00;68.30;;;;;;4974688;28;20018;-83
2021/05/12 00:09:40;;;;;;;3.05;2.80;;;11.00;68.50;;;;;;4974795;28;20105;-83
2021/05/12 00:12:07;;;;;;;3.10;2.80;;;10.90;68.60;;;;;;4974644;28;20381;-85
2021/05/12 00:14:35;;;;;;;3.83;3.08;;;10.90;68.70;;;;;;4972950;28;20023;-83
2021/05/12 00:17:01;;;;;;;3.10;2.80;;;10.90;68.90;;;;;;5006069;28;20442;-82
2021/05/12 00:19:28;;;;;;;3.45;2.80;;;10.80;69.00;;;;;;5005647;28;20114;-82
2021/05/12 00:22:15;;;;;;;3.70;3.40;;;10.80;69.20;;;;;;4975438;28;20015;-83
2021/05/12 00:24:41;;;;;;;3.08;2.78;;;10.70;69.30;;;;;;4980861;28;20022;-82
2021/05/12 00:27:07;;;;;;;5.40;2.83;;;10.70;69.50;;;;;;4980676;28;20057;-84
2021/05/12 00:29:34;;;;;;;4.22;3.10;;;10.70;69.70;;;;;;4974606;28;20495;-83
2021/05/12 00:32:00;;;;;;;6.70;3.17;;;10.60;70.00;;;;;;4976952;28;20035;-84
2021/05/12 00:34:25;;;;;;;3.20;2.90;;;10.50;70.10;;;;;;4976477;28;20097;-84
2021/05/12 00:36:51;;;;;;;4.25;2.83;;;10.50;70.50;;;;;;4975748;28;20050;-84
2021/05/12 00:39:17;;;;;;;3.33;2.80;;;10.50;70.60;;;;;;4975263;28;20027;-84
2021/05/12 00:41:43;;;;;;;3.28;2.78;;;10.40;70.80;;;;;;4976754;28;20104;-84
2021/05/12 00:44:17;;;;;;;3.00;2.80;;;10.40;71.00;;;;;;4980963;28;20036;-84
2021/05/12 00:46:48;;;;;;;2.80;2.60;;;10.30;71.80;;;;;;4981149;28;20102;-83
2021/05/12 00:49:14;;;;;;;3.83;2.47;;;10.30;71.40;;;;;;4980920;28;20038;-83
2021/05/12 00:51:41;;;;;;;4.15;2.80;;;10.30;71.60;;;;;;4981041;28;20026;-83
2021/05/12 00:54:07;;;;;;;3.92;2.63;;;10.20;71.90;;;;;;4980920;28;20026;-83
2021/05/12 00:56:34;;;;;;;3.72;2.58;;;10.20;72.20;;;;;;5013613;28;20031;-84
2021/05/12 00:59:01;;;;;;;2.63;2.42;;;10.20;72.20;;;;;;4982811;28;20417;-83
2021/05/12 01:01:27;;;;;;;2.40;2.20;;;10.10;72.20;;;;;;4994729;28;20023;-83
2021/05/12 01:03:52;;;;;;;4.18;2.50;;;10.10;72.30;;;;;;4984331;28;20031;-85
2021/05/12 01:06:28;;;;;;;2.95;2.42;;;10.10;72.40;;;;;;4981357;28;20093;-83
2021/05/12 01:08:54;;;;;;;4.20;2.20;;;10.10;72.70;;;;;;4980919;28;20061;-83
2021/05/12 01:11:20;;;;;;;2.90;2.70;;;10.00;72.70;;;;;;5012410;28;20065;-84
2021/05/12 01:13:47;;;;;;;2.70;2.50;;;10.00;72.90;;;;;;4980951;28;20026;-84
2021/05/12 01:16:14;;;;;;;3.20;2.40;;;10.00;73.00;;;;;;5012922;28;20031;-84
2021/05/12 01:18:40;;;;;;;4.28;2.70;;;10.00;73.00;;;;;;4981543;28;20081;-84
2021/05/12 01:21:08;;;;;;;2.50;2.30;;;10.00;73.20;;;;;;4981621;28;20101;-84
2021/05/12 01:23:37;;;;;;;3.05;2.58;;;9.90;73.40;;;;;;4981258;28;20023;-84
2021/05/12 01:26:07;;;;;;;2.75;2.53;;;9.90;73.50;;;;;;5012698;28;20114;-85
2021/05/12 01:28:35;;;;;;;3.72;2.25;;;9.80;73.70;;;;;;5012317;28;20050;-84
2021/05/12 01:31:12;;;;;;;3.85;2.38;;;9.80;73.80;;;;;;4982077;28;20079;-84
2021/05/12 01:33:38;;;;;;;2.83;2.63;;;9.80;73.90;;;;;;4982495;28;20027;-85
2021/05/12 01:36:06;;;;;;;2.60;2.40;;;9.80;74.00;;;;;;4991203;28;20022;-84
2021/05/12 01:38:33;;;;;;;3.50;2.35;;;9.70;74.10;;;;;;4986486;28;20113;-85
2021/05/12 01:41:01;;;;;;;2.30;2.17;;;9.70;74.20;;;;;;4982442;28;20026;-84
2021/05/12 01:43:27;;;;;;;2.95;2.05;;;9.70;74.40;;;;;;5012562;28;20026;-85
2021/05/12 01:45:53;;;;;;;2.30;2.10;;;9.70;74.50;;;;;;5012527;28;20027;-83
2021/05/12 01:48:18;;;;;;;7.25;2.38;;;9.70;74.60;;;;;;4981003;28;20043;-83
2021/05/12 01:50:45;;;;;;;2.80;2.53;;;9.70;74.70;;;;;;5012485;28;20114;-84
2021/05/12 01:53:11;;;;;;;2.88;2.47;;;9.70;74.60;;;;;;4979750;28;20100;-84
2021/05/12 01:55:38;;;;;;;2.30;2.10;;;9.70;74.70;;;;;;4978131;28;20023;-84
2021/05/12 01:58:04;;;;;;;2.58;2.13;;;9.60;74.60;;;;;;4977668;28;20063;-85
2021/05/12 02:00:39;;;;;;;2.83;2.63;;;9.60;74.70;;;;;;4977946;28;20022;-85
2021/05/12 02:03:07;;;;;;;2.63;2.20;;;9.60;74.90;;;;;;4977728;28;20030;-84
2021/05/12 02:05:35;;;;;;;2.10;1.90;;;9.60;74.90;;;;;;4977744;28;20047;-84
2021/05/12 02:08:03;;;;;;;2.45;2.20;;;9.60;75.10;;;;;;4980567;28;20091;-83
2021/05/12 02:10:29;;;;;;;2.45;2.25;;;9.60;75.20;;;;;;4994191;28;20319;-83
2021/05/12 02:12:56;;;;;;;6.97;2.30;;;9.60;75.40;;;;;;4980383;28;20074;-83
2021/05/12 02:15:23;;;;;;;2.60;2.10;;;9.60;75.50;;;;;;4976335;28;20469;-84
2021/05/12 02:17:49;;;;;;;2.45;2.00;;;9.50;75.50;;;;;;4977307;28;20023;-84
2021/05/12 02:20:19;;;;;;;3.40;1.95;;;9.50;75.50;;;;;;5009312;28;20023;-84
2021/05/12 02:22:45;;;;;;;2.38;2.20;;;9.50;75.60;;;;;;4977907;28;20037;-84
2021/05/12 02:25:11;;;;;;;2.33;2.10;;;9.50;75.70;;;;;;4978110;28;20856;-84
2021/05/12 02:27:37;;;;;;;2.15;1.75;;;9.50;75.90;;;;;;4977843;28;20050;-83
2021/05/12 02:30:05;;;;;;;2.65;1.73;;;9.50;76.20;;;;;;4978153;28;20035;-84
2021/05/12 02:32:31;;;;;;;4.57;1.80;;;9.60;76.50;;;;;;4977743;28;20458;-84
2021/05/12 02:34:58;;;;;;;3.28;1.83;;;9.60;76.80;;;;;;4977510;28;20042;-83
2021/05/12 02:37:24;;;;;;;2.53;1.88;;;9.80;77.10;;;;;;4977030;28;20081;-84
2021/05/12 02:39:50;;;;;;;2.40;1.85;;;10.00;77.00;;;;;;4977100;28;20018;-84
2021/05/12 02:42:16;;;;;;;2.15;1.50;;;10.30;77.10;;;;;;4976902;28;20465;-84
2021/05/12 02:44:42;;;;;;;1.48;1.30;;;10.70;76.50;;;;;;4993313;28;20010;-84
2021/05/12 02:47:08;;;;;;;1.15;1.15;;;11.20;75.20;;;;;;4983030;28;20033;-83
2021/05/12 02:49:34;;;;;;;1.23;1.13;;;11.50;73.70;;;;;;4977658;28;20031;-85
2021/05/12 02:52:00;;;;;;;3.00;1.20;;;11.70;72.60;;;;;;4976937;28;20035;-85
2021/05/12 02:54:26;;;;;;;1.30;1.17;;;11.80;72.10;;;;;;4976664;28;20069;-85
2021/05/12 02:56:52;;;;;;;1.08;1.08;;;11.90;71.40;;;;;;4976734;28;20058;-86
2021/05/12 02:59:18;;;;;;;2.20;1.45;;;12.20;71.30;;;;;;4977400;28;20103;-87
2021/05/12 03:01:43;;;;;;;1.60;1.50;;;12.50;71.20;;;;;;4977601;28;20462;-87
2021/05/12 03:04:09;;;;;;;1.80;1.42;;;13.00;70.10;;;;;;4977209;28;20029;-87
2021/05/12 03:06:35;;;;;;;2.10;1.45;;;13.60;69.50;;;;;;4976627;28;20077;-87
2021/05/12 03:09:01;;;;;;;1.45;0.93;;;14.60;68.40;;;;;;5007792;28;20041;-86
2021/05/12 03:11:26;;;;;;;2.13;1.00;;;15.60;65.70;;;;;;5006915;28;20115;-82
2021/05/12 03:13:52;;;;;;;1.13;1.10;;;16.20;61.90;;;;;;4976142;28;20027;-83
2021/05/12 03:16:18;;;;;;;1.30;1.00;;;16.40;60.50;;;;;;4976274;28;20035;-83
2021/05/12 03:18:43;;;;;;;1.65;1.20;;;16.80;60.00;;;;;;4979091;28;20085;-83
2021/05/12 03:21:09;;;;;;;1.25;1.10;;;17.30;59.00;;;;;;5016960;28;20027;-85
2021/05/12 03:23:35;;;;;;;1.73;1.30;;;17.70;56.80;;;;;;5007878;28;20022;-84
2021/05/12 03:26:01;;;;;;;1.30;1.20;;;17.70;56.60;;;;;;4976091;28;20023;-83
2021/05/12 03:28:27;;;;;;;1.92;1.17;;;17.80;55.90;;;;;;4975895;28;20051;-83
2021/05/12 03:30:54;;;;;;;2.70;1.40;;;17.50;54.50;;;;;;4975834;28;20058;-84
2021/05/12 03:33:22;;;;;;;1.08;0.90;;;16.70;54.60;;;;;;4974649;28;20377;-84
2021/05/12 03:35:48;;;;;;;2.15;1.20;;;15.90;55.80;;;;;;4975812;28;20034;-83
2021/05/12 03:38:15;;;;;;;1.10;1.10;;;15.30;57.00;;;;;;4975850;28;20022;-83
2021/05/12 03:40:42;;;;;;;1.45;1.35;;;14.80;58.20;;;;;;4975976;28;20029;-82
2021/05/12 03:43:08;;;;;;;3.20;1.17;;;14.30;59.30;;;;;;4976074;28;20022;-85
2021/05/12 03:45:34;;;;;;;3.45;1.40;;;14.00;60.30;;;;;;4976223;28;20530;-84
2021/05/12 03:48:00;;;;;;;1.67;1.58;;;13.60;61.00;;;;;;5007060;28;20066;-86
2021/05/12 03:50:28;;;;;;;1.60;1.50;;;13.20;62.00;;;;;;4980643;28;20007;-85
2021/05/12 03:52:55;;;;;;;2.55;0.90;;;12.90;63.10;;;;;;4984303;28;20030;-84
2021/05/12 03:55:21;;;;;;;1.08;0.98;;;12.70;63.80;;;;;;5017211;28;20035;-85
2021/05/12 03:57:47;;;;;;;1.23;1.10;;;12.60;64.40;;;;;;4982817;28;20389;-85
2021/05/12 04:00:14;;;;;;;4.00;1.20;;;12.40;64.80;;;;;;4989486;28;20026;-82
2021/05/12 04:02:41;;;;;;;1.48;1.38;;;12.30;65.20;;;;;;4990315;28;20018;-85
2021/05/12 04:05:08;;;;;;;3.20;1.50;;;12.10;65.70;;;;;;4978636;28;20030;-85
2021/05/12 04:07:34;;;;;;;3.75;1.48;;;12.00;66.20;;;;;;4975687;28;20031;-84
2021/05/12 04:10:00;;;;;;;2.53;1.60;;;11.90;66.60;;;;;;4978718;28;20031;-84
2021/05/12 04:12:26;;;;;;;1.65;1.35;;;11.80;67.10;;;;;;4975518;28;20049;-85
2021/05/12 04:14:51;;;;;;;3.60;1.27;;;11.70;67.50;;;;;;5006047;28;20035;-86
2021/05/12 04:17:17;;;;;;;1.75;1.50;;;11.70;68.10;;;;;;5006599;28;20031;-87
2021/05/12 04:19:46;;;;;;;3.75;2.03;;;11.70;68.40;;;;;;4974913;28;20078;-85
2021/05/12 04:22:13;;;;;;;1.83;1.58;;;11.80;68.70;;;;;;4975028;28;20422;-84
2021/05/12 04:24:39;;;;;;;2.53;1.70;;;11.80;68.70;;;;;;4974923;28;20150;-85
2021/05/12 04:27:07;;;;;;;2.03;1.85;;;11.90;68.70;;;;;;4976153;28;20070;-82
2021/05/12 04:29:36;;;;;;;3.40;1.90;;;11.80;68.70;;;;;;4991464;28;20041;-84
2021/05/12 04:32:04;;;;;;;7.43;2.03;;;11.60;68.90;;;;;;4978424;28;20031;-85
2021/05/12 04:34:29;;;;;;;2.28;1.92;;;11.60;69.50;;;;;;4975205;28;20110;-86
2021/05/12 04:36:55;;;;;;;2.90;2.08;;;11.50;69.60;;;;;;4973364;28;20061;-83
2021/05/12 04:39:21;;;;;;;2.88;1.83;;;11.40;70.00;;;;;;4974364;28;20049;-86
2021/05/12 04:41:47;;;;;;;2.03;1.92;;;11.30;70.50;;;;;;4974475;28;20026;-86
2021/05/12 04:44:14;;;;;;;2.03;1.83;;;11.20;71.00;;;;;;4974517;28;20019;-86
2021/05/12 04:46:41;;;;;;;4.85;1.80;;;11.20;71.50;;;;;;4974472;28;20034;-86
2021/05/12 04:49:07;;;;;;;2.10;2.00;;;11.20;71.80;;;;;;4974340;28;20409;-87
2021/05/12 04:51:35;;;;;;;3.88;2.30;;;11.30;71.90;;;;;;4974410;28;20481;-86
2021/05/12 04:54:02;;;;;;;2.65;2.10;;;11.40;72.10;;;;;;5004529;28;20027;-87
2021/05/12 04:56:28;;;;;;;8.90;3.42;;;11.50;72.50;;;;;;4972754;28;20019;-86
2021/05/12 04:58:54;;;;;;;2.95;2.03;;;11.60;72.20;;;;;;4971879;28;20120;-86
2021/05/12 05:01:20;;;;;;;4.65;2.08;;;11.70;72.00;;;;;;4974571;28;20150;-85
2021/05/12 05:03:45;;;;;;;5.95;3.08;;;11.80;71.80;;;;;;4983861;28;20023;-86
2021/05/12 05:06:11;;;;;;;6.57;3.05;;;11.80;71.80;;;;;;5015167;28;20047;-86
2021/05/12 05:08:38;;;;;;;4.80;2.40;;;11.80;72.00;;;;;;4975434;28;20030;-86
2021/05/12 05:11:04;;;;;;;3.15;2.47;;;11.90;71.90;;;;;;4974515;28;20031;-86
2021/05/12 05:13:29;;;;;;;3.83;2.03;;;11.90;71.70;;;;;;4974080;28;20035;-85
2021/05/12 05:15:55;;;;;;;3.47;2.10;;;12.00;71.60;;;;;;4975510;28;20034;-86
2021/05/12 05:18:22;;;;;;;3.50;2.20;;;12.00;71.40;;;;;;4973521;28;20026;-86
2021/05/12 05:20:47;;;;;;;2.85;2.22;;;12.00;71.40;;;;;;4973573;28;20058;-86
2021/05/12 05:23:13;;;;;;;4.43;2.10;;;12.00;71.60;;;;;;5005923;28;20477;-87
2021/05/12 05:25:39;;;;;;;4.32;2.35;;;12.00;71.70;;;;;;4975963;28;20437;-86
2021/05/12 05:28:04;;;;;;;4.25;2.60;;;12.10;71.80;;;;;;4974107;28;20157;-85
2021/05/12 05:30:30;;;;;;;1.98;1.88;;;12.20;71.80;;;;;;4977391;28;20376;-85
2021/05/12 05:33:02;;;;;;;9.20;2.10;;;12.30;71.40;;;;;;4977898;28;20454;-85
2021/05/12 05:35:28;;;;;;;7.32;2.10;;;12.30;71.30;;;;;;4977980;28;20064;-85
2021/05/12 05:37:55;;;;;;;3.10;2.05;;;12.40;71.30;;;;;;4989041;28;20035;-84
2021/05/12 05:40:21;;;;;;;6.68;2.90;;;12.40;70.80;;;;;;4989418;28;20057;-85
2021/05/12 05:42:47;;;;;;;2.00;1.42;;;12.50;70.80;;;;;;4978509;28;20023;-85
2021/05/12 05:45:13;;;;;;;2.38;1.60;;;12.50;69.90;;;;;;4976642;28;20061;-86
2021/05/12 05:47:38;;;;;;;7.30;2.20;;;12.50;69.90;;;;;;4977081;28;20027;-85
2021/05/12 05:50:06;;;;;;;3.42;1.40;;;12.50;69.90;;;;;;4977685;28;20030;-86
2021/05/12 05:52:31;;;;;;;8.25;1.30;;;12.60;69.50;;;;;;4975627;28;20385;-86
2021/05/12 05:54:58;;;;;;;5.13;1.40;;;12.50;69.30;;;;;;4976181;28;20035;-79
2021/05/12 05:57:24;;;;;;;5.00;1.00;;;12.50;69.00;;;;;;4975573;28;20034;-81
2021/05/12 05:59:50;;;;;;;1.67;1.08;;;12.50;68.90;;;;;;5007340;28;20473;-86
2021/05/12 06:02:15;;;;;;;1.40;1.30;;;12.50;68.80;;;;;;4977008;28;20026;-86
2021/05/12 06:04:41;;;;;;;3.22;1.60;;;12.50;68.80;;;;;;4976914;28;20453;-85
2021/05/12 06:07:08;;;;;;;1.05;0.98;;;12.70;69.40;;;;;;5008261;28;20038;-87
2021/05/12 06:09:33;;;;;;;2.63;1.30;;;12.90;69.50;;;;;;5007564;28;20089;-86
2021/05/12 06:11:59;;;;;;;3.28;2.20;;;13.20;68.80;;;;;;4979643;28;20046;-85
2021/05/12 06:14:25;;;;;;;3.42;1.30;;;13.60;68.20;;;;;;4995860;28;20031;-84
2021/05/12 06:16:51;;;;;;;1.27;1.17;;;14.00;67.00;;;;;;4983040;28;20363;-86
2021/05/12 06:19:17;;;;;;;4.40;1.90;;;14.30;66.20;;;;;;4976838;28;20097;-86
2021/05/12 06:21:43;;;;;;;1.10;1.00;;;14.50;65.30;;;;;;4977057;28;20023;-86
2021/05/12 06:24:09;;;;;;;5.22;1.33;;;14.60;64.20;;;;;;4976664;28;20022;-87
2021/05/12 06:26:39;;;;;;;2.22;1.17;;;14.60;64.00;;;;;;4976337;28;20466;-87
2021/05/12 06:29:06;;;;;;;9.15;1.83;;;14.60;63.50;;;;;;4977694;28;20486;-87
2021/05/12 06:31:31;;;;;;;3.78;1.17;;;14.60;63.40;;;;;;5008935;28;20035;-87
2021/05/12 06:34:02;;;;;;;3.85;1.20;;;14.50;62.50;;;;;;4975867;28;20035;-84
2021/05/12 06:36:27;;;;;;;5.95;1.33;;;14.40;62.40;;;;;;4976280;28;20030;-83
2021/05/12 06:38:53;;;;;;;5.05;1.27;;;14.10;62.50;;;;;;4975094;28;20075;-82
2021/05/12 06:41:20;;;;;;;3.17;1.80;;;13.90;63.40;;;;;;4975304;28;20031;-83
2021/05/12 06:43:48;;;;;;;1.25;1.00;;;13.70;63.50;;;;;;4975510;28;20061;-82
2021/05/12 06:46:14;;;;;;;5.18;1.92;;;13.60;63.70;;;;;;4975381;28;20022;-79
2021/05/12 06:48:40;;;;;;;4.03;1.85;;;13.50;63.80;;;;;;4974232;28;20037;-81
2021/05/12 06:51:06;;;;;;;2.78;1.67;;;13.30;63.90;;;;;;4978197;28;20401;-83
2021/05/12 06:53:34;;;;;;;4.80;1.20;;;13.20;64.20;;;;;;4977253;28;20081;-81
2021/05/12 06:56:00;;;;;;;4.07;1.67;;;13.10;64.40;;;;;;4976174;28;20049;-82
2021/05/12 06:58:29;;;;;;;2.50;1.10;;;13.10;64.90;;;;;;4975151;28;20030;-80
2021/05/12 07:00:55;;;;;;;7.70;1.50;;;13.30;64.80;;;;;;4974837;28;20022;-79
2021/05/12 07:03:23;;;;;;;1.33;1.05;;;13.30;64.70;;;;;;4974375;28;20023;-79
2021/05/12 07:05:51;;;;;;;3.55;1.20;;;13.30;64.80;;;;;;4974487;28;20031;-79
2021/05/12 07:08:17;;;;;;;2.40;1.10;;;13.30;64.60;;;;;;4974415;28;20588;-80
2021/05/12 07:10:43;;;;;;;5.57;1.20;;;13.30;64.70;;;;;;4974272;28;20027;-79
2021/05/12 07:13:09;;;;;;;1.77;1.10;;;13.30;64.30;;;;;;4974631;28;20031;-80
2021/05/12 07:15:34;;;;;;;6.50;1.85;;;13.20;64.40;;;;;;4974474;28;20113;-80
2021/05/12 07:18:00;;;;;;;2.13;1.40;;;13.20;64.70;;;;;;4974258;28;20038;-80
2021/05/12 07:20:26;;;;;;;6.25;1.80;;;13.30;64.80;;;;;;4974401;28;20058;-74
2021/05/12 07:22:52;;;;;;;3.22;1.45;;;13.30;64.70;;;;;;4973817;28;20027;-75
2021/05/12 07:25:18;;;;;;;2.05;1.73;;;13.30;64.60;;;;;;4973651;28;20102;-75
2021/05/12 07:27:45;;;;;;;4.50;1.90;;;13.30;64.50;;;;;;4973682;28;20130;-76
2021/05/12 07:30:11;;;;;;;6.03;2.42;;;13.30;64.70;;;;;;4973968;28;20023;-78
2021/05/12 07:32:37;;;;;;;2.35;2.03;;;13.30;65.10;;;;;;4974972;28;20035;-80
2021/05/12 07:35:03;;;;;;;3.15;2.00;;;13.40;64.80;;;;;;4974504;28;20031;-80
2021/05/12 07:37:29;;;;;;;4.03;2.28;;;13.40;64.80;;;;;;4973972;28;20026;-80
2021/05/12 07:39:55;;;;;;;3.58;1.83;;;13.30;65.20;;;;;;4973960;28;20019;-79
2021/05/12 07:42:23;;;;;;;7.70;2.83;;;13.40;65.70;;;;;;4973933;28;20051;-79
2021/05/12 07:44:49;;;;;;;3.80;2.47;;;13.50;65.90;;;;;;5005423;28;20105;-80
2021/05/12 07:47:15;;;;;;;7.57;3.10;;;13.70;65.30;;;;;;4973740;28;20149;-76
2021/05/12 07:49:42;;;;;;;3.97;2.70;;;13.70;65.00;;;;;;5004701;28;20031;-75
2021/05/12 07:52:17;;;;;;;3.28;2.72;;;13.90;64.50;;;;;;4972551;28;20548;-76
2021/05/12 07:54:43;;;;;;;4.88;2.80;;;13.90;63.50;;;;;;4973237;28;20031;-75
2021/05/12 07:57:09;;;;;;;6.70;2.80;;;13.90;63.90;;;;;;4973110;28;20023;-74
2021/05/12 07:59:35;;;;;;;6.10;2.60;;;13.90;64.00;;;;;;4973141;28;20018;-74
2021/05/12 08:02:04;;;;;;;5.88;3.60;;;14.00;64.20;;;;;;4973291;28;20023;-77
2021/05/12 08:04:30;;;;;;;3.25;2.70;;;14.10;64.00;;;;;;4972789;28;20126;-77
2021/05/12 08:06:57;;;;;;;10.80;3.33;;;14.20;63.70;;;;;;4972288;28;20014;-77
2021/05/12 08:09:23;;;;;;;2.58;2.38;;;14.20;63.50;;;;;;4972822;28;20030;-75
2021/05/12 08:11:49;;;;;;;4.90;3.00;;;14.30;63.50;;;;;;4972813;28;20035;-74
2021/05/12 08:14:15;;;;;;;6.10;3.10;;;14.50;63.70;;;;;;4972980;28;20408;-75
2021/05/12 08:16:41;;;;;;;3.65;3.05;;;14.60;62.00;;;;;;4971878;28;20484;-74
2021/05/12 08:19:08;;;;;;;3.50;3.20;;;14.40;61.80;;;;;;4972333;28;20081;-74
2021/05/12 08:21:34;;;;;;;3.33;3.03;;;14.30;62.20;;;;;;4972774;28;20102;-75
2021/05/12 08:24:00;;;;;;;7.72;4.00;;;14.40;62.60;;;;;;4970804;28;20018;-75
2021/05/12 08:26:26;;;;;;;5.32;2.90;;;14.50;62.60;;;;;;4971742;28;20086;-75
2021/05/12 08:28:52;;;;;;;6.53;3.20;;;14.70;62.30;;;;;;4972254;28;20183;-75
2021/05/12 08:31:19;;;;;;;3.55;2.75;;;14.90;61.90;;;;;;4971233;28;20105;-73
2021/05/12 08:33:45;;;;;;;3.03;2.80;;;15.00;61.10;;;;;;4972444;28;20106;-73
2021/05/12 08:36:10;;;;;;;4.15;2.92;;;15.00;60.60;;;;;;4972773;28;20054;-73
2021/05/12 08:38:37;;;;;;;2.90;2.70;;;15.30;60.90;;;;;;4971360;28;20515;-75
2021/05/12 08:41:03;;;;;;;4.70;3.08;;;15.60;59.70;;;;;;4971217;28;20023;-75
2021/05/12 08:43:30;;;;;;;4.10;2.95;;;15.60;59.20;;;;;;4971587;28;20480;-75
2021/05/12 08:45:56;;;;;;;7.38;3.40;;;15.80;59.80;;;;;;4972633;28;20030;-75
2021/05/12 08:48:24;;;;;;;4.78;2.88;;;16.10;59.50;;;;;;4972487;28;20081;-75
2021/05/12 08:50:52;;;;;;;3.70;3.03;;;16.30;59.30;;;;;;4970823;28;20031;-74
2021/05/12 08:53:18;;;;;;;3.72;2.20;;;16.60;58.90;;;;;;4972374;28;20107;-74
2021/05/12 08:55:46;;;;;;;6.80;2.33;;;16.70;57.00;;;;;;4972391;28;20063;-74
2021/05/12 08:58:11;;;;;;;2.33;1.67;;;16.80;56.40;;;;;;4971278;28;20416;-74
2021/05/12 09:00:39;;;;;;;2.88;2.00;;;17.00;55.40;;;;;;4972436;28;20106;-75
2021/05/12 09:03:06;;;;;;;1.70;1.60;;;16.80;54.10;;;;;;4973583;28;20424;-74
2021/05/12 09:05:32;;;;;;;2.65;1.92;;;16.90;54.20;;;;;;4974914;28;20394;-75
2021/05/12 09:07:58;;;;;;;3.67;2.08;;;17.20;53.90;;;;;;4976213;28;20047;-73
2021/05/12 09:10:24;;;;;;;1.85;1.70;;;17.30;53.80;;;;;;4976183;28;20030;-75
2021/05/12 09:12:53;;;;;;;2.08;1.95;;;17.40;53.60;;;;;;4976050;28;20019;-75
2021/05/12 09:15:21;;;;;;;2.38;2.05;;;17.70;53.30;;;;;;4976426;28;20038;-74
2021/05/12 09:17:49;;;;;;;3.05;1.90;;;17.90;53.50;;;;;;4975844;28;20023;-74
2021/05/12 09:20:21;;;;;;;5.55;2.40;;;18.00;52.80;;;;;;4975554;28;20019;-73
2021/05/12 09:22:59;;;;;;;2.25;2.08;;;17.90;53.00;;;;;;4975867;28;20521;-75
2021/05/12 09:25:26;;;;;;;9.88;2.47;;;17.70;53.10;;;;;;4975881;28;20023;-74
2021/05/12 09:27:52;;;;;;;2.45;2.10;;;17.70;54.20;;;;;;4975676;28;20046;-74
2021/05/12 09:30:22;;;;;;;3.33;2.60;;;17.70;53.70;;;;;;4974409;28;20041;-76
2021/05/12 09:32:48;;;;;;;3.22;2.28;;;17.40;53.90;;;;;;4975529;28;20110;-75
2021/05/12 09:35:14;;;;;;;6.38;2.40;;;17.10;53.90;;;;;;4975467;28;20027;-74
2021/05/12 09:37:45;;;;;;;2.25;2.05;;;16.70;54.70;;;;;;4975434;28;20093;-74
2021/05/12 09:40:15;;;;;;;2.92;2.55;;;16.70;55.00;;;;;;4974431;28;20477;-74
2021/05/12 09:42:42;;;;;;;2.80;1.45;;;16.60;55.10;;;;;;4975494;28;20018;-74
2021/05/12 09:45:15;;;;;;;2.50;1.60;;;16.50;54.80;;;;;;4975398;28;20066;-75
2021/05/12 09:48:03;;;;;;;4.97;1.65;;;16.30;54.80;;;;;;4977206;28;20031;-74
2021/05/12 09:50:36;;;;;;;1.92;1.67;;;16.20;54.70;;;;;;4977972;28;20107;-75
2021/05/12 09:53:11;;;;;;;1.63;1.52;;;16.10;54.50;;;;;;4974797;28;20076;-74
2021/05/12 09:55:44;;;;;;;1.80;1.70;;;16.00;55.30;;;;;;4974008;28;20037;-73
2021/05/12 09:58:12;;;;;;;5.72;2.10;;;16.30;55.10;;;;;;4975198;28;20033;-76
2021/05/12 10:00:43;;;;;;;2.85;1.67;;;16.50;55.00;;;;;;4975239;28;20030;-77
2021/05/12 10:03:11;;;;;;;3.50;1.60;;;16.80;54.80;;;;;;4974034;28;20481;-74
2021/05/12 10:06:01;;;;;;;3.38;2.00;;;16.80;53.90;;;;;;4973856;28;20162;-74
2021/05/12 10:08:30;;;;;;;1.90;1.80;;;16.80;54.30;;;;;;4975180;28;20425;-75
2021/05/12 10:10:58;;;;;;;1.60;1.50;;;16.70;53.90;;;;;;4975053;28;20346;-74
2021/05/12 10:13:24;;;;;;;1.55;1.45;;;16.70;53.90;;;;;;4974837;28;20418;-74
2021/05/12 10:15:51;;;;;;;1.75;1.65;;;16.60;54.40;;;;;;4973832;28;20341;-74
2021/05/12 10:18:17;;;;;;;1.60;1.50;;;16.70;54.60;;;;;;4973348;28;20037;-74
2021/05/12 10:20:43;;;;;;;1.88;1.75;;;16.90;54.30;;;;;;4974626;28;20034;-74
2021/05/12 10:23:09;;;;;;;3.38;1.90;;;16.90;52.40;;;;;;4974438;28;20079;-72
2021/05/12 10:25:39;;;;;;;7.40;2.17;;;16.70;52.40;;;;;;4974593;28;20022;-74
2021/05/12 10:28:07;;;;;;;2.65;1.63;;;16.50;52.90;;;;;;4974745;28;20515;-74
2021/05/12 10:30:34;;;;;;;4.13;2.03;;;16.50;53.10;;;;;;4974816;28;20470;-76
2021/05/12 10:33:01;;;;;;;2.17;1.80;;;16.50;53.40;;;;;;4974515;28;20037;-75
2021/05/12 10:35:35;;;;;;;3.55;1.80;;;16.60;53.10;;;;;;4974952;28;20027;-75
2021/05/12 10:38:02;;;;;;;11.35;2.03;;;16.60;52.90;;;;;;4974627;28;20031;-75
2021/05/12 10:40:38;;;;;;;2.70;2.20;;;16.80;53.40;;;;;;4974245;28;20103;-75
2021/05/12 10:45:53;;;;;;;2.85;2.65;;;16.80;53.40;;;;;;4974574;28;20078;-75
2021/05/12 10:48:33;;;;;;;2.55;2.35;;;16.70;53.90;;;;;;4973328;28;20047;-74
2021/05/12 10:51:02;;;;;;;2.10;2.00;;;16.80;54.20;;;;;;4974524;28;20038;-75
2021/05/12 10:53:30;;;;;;;3.53;2.20;;;16.90;53.90;;;;;;4974533;28;20034;-73
2021/05/12 10:55:56;;;;;;;2.67;2.25;;;16.80;53.90;;;;;;4972975;28;20054;-74
2021/05/12 10:58:23;;;;;;;2.38;2.20;;;16.50;54.20;;;;;;4974321;28;20066;-76
2021/05/12 11:01:08;;;;;;;3.33;2.25;;;16.30;54.90;;;;;;4974404;28;20022;-75
2021/05/12 11:03:52;;;;;;;2.92;2.40;;;16.30;54.50;;;;;;4973972;28;20370;-75
2021/05/12 11:06:45;;;;;;;3.67;2.42;;;16.10;55.10;;;;;;4972744;28;20062;-74
2021/05/12 11:09:17;;;;;;;;;;;16.20;55.90;;;;;;4974347;28;20077;-73
2021/05/12 11:11:49;;;;;;;5.22;2.75;;;16.30;55.10;;;;;;4974224;28;20017;-75
2021/05/12 11:14:18;;;;;;;2.50;2.30;;;16.30;54.90;;;;;;4974208;28;20446;-74
2021/05/12 11:17:03;;;;;;;2.63;2.42;;;16.20;55.20;;;;;;4973887;28;20038;-75
2021/05/12 11:19:46;;;;;;;5.43;3.28;;;16.10;55.50;;;;;;4973410;28;20054;-75
2021/05/12 11:25:59;;;;;;;4.35;3.10;;;16.30;55.90;;;;;;4973747;28;20719;-75
2021/05/12 11:33:19;;;;;;;2.97;2.78;;;16.70;55.10;;;;;;4973512;28;20038;-75
2021/05/12 11:35:47;;;;;;;2.83;2.63;;;16.70;54.90;;;;;;4973576;28;20478;-76
2021/05/12 11:38:17;;;;;;;3.03;2.80;;;16.50;54.50;;;;;;4973537;28;20053;-75
2021/05/12 11:41:03;;;;;;;3.13;2.78;;;16.30;54.70;;;;;;4973634;28;20073;-75
2021/05/12 11:43:36;;;;;;;2.92;2.72;;;16.10;54.80;;;;;;4973563;28;20074;-75
2021/05/12 11:46:14;;;;;;;4.35;3.08;;;16.10;55.40;;;;;;4973104;28;20054;-75
2021/05/12 11:48:44;;;;;;;4.05;3.10;;;16.10;55.60;;;;;;4973009;28;20122;-75
2021/05/12 11:51:10;;;;;;;5.57;3.80;;;16.20;55.70;;;;;;4973178;28;20106;-76
2021/05/12 11:53:40;;;;;;;6.15;4.80;;;16.40;55.70;;;;;;4973160;28;20027;-75
2021/05/12 11:56:07;;;;;;;6.18;4.55;;;16.50;55.60;;;;;;4973179;28;20030;-76
2021/05/12 11:58:33;;;;;;;3.65;3.30;;;16.60;55.10;;;;;;4973022;28;20066;-74
2021/05/12 12:01:07;;;;;;;3.50;3.20;;;16.60;54.90;;;;;;4973199;28;20023;-76
2021/05/12 12:03:35;;;;;;;6.93;4.55;;;16.60;54.50;;;;;;4972929;28;20047;-76
2021/05/12 12:06:03;;;;;;;3.70;3.40;;;16.50;54.30;;;;;;4971837;28;20041;-75
2021/05/12 12:08:29;;;;;;;3.83;3.20;;;16.50;54.60;;;;;;4973094;28;20114;-77
2021/05/12 12:11:16;;;;;;;6.50;3.60;;;16.60;54.70;;;;;;4973055;28;20077;-76
2021/05/12 12:13:42;;;;;;;5.22;3.42;;;16.60;54.40;;;;;;4972840;28;20478;-76
2021/05/12 12:16:10;;;;;;;5.07;3.17;;;16.80;54.50;;;;;;4971161;28;20086;-76
2021/05/12 12:18:38;;;;;;;3.38;3.08;;;16.90;54.00;;;;;;4971520;28;20027;-76
2021/05/12 12:21:09;;;;;;;3.30;3.10;;;17.00;53.20;;;;;;4973061;28;20099;-76
2021/05/12 12:23:38;;;;;;;3.42;3.13;;;16.90;53.20;;;;;;4973019;28;20022;-77
2021/05/12 12:26:15;;;;;;;3.50;3.20;;;16.80;53.10;;;;;;4972808;28;20023;-76
2021/05/12 12:28:43;;;;;;;3.05;2.85;;;16.90;52.80;;;;;;4972994;28;20047;-76
2021/05/12 12:31:13;;;;;;;3.10;2.90;;;16.80;52.80;;;;;;4972860;28;20089;-76
2021/05/12 12:34:17;;;;;;;4.32;3.17;;;16.70;52.40;;;;;;4973048;28;20110;-77
2021/05/12 12:36:58;;;;;;;3.10;2.80;;;16.60;52.40;;;;;;4972902;28;20033;-75
2021/05/12 12:39:44;;;;;;;3.45;3.03;;;16.60;52.80;;;;;;4972504;28;20416;-76
2021/05/12 12:42:11;;;;;;;2.63;2.42;;;16.50;53.10;;;;;;4971021;28;20157;-76
2021/05/12 12:44:42;;;;;;;3.35;2.40;;;16.30;52.70;;;;;;4972159;28;20019;-76
2021/05/12 12:47:26;;;;;;;3.83;3.42;;;16.10;52.70;;;;;;4972794;28;20027;-77
2021/05/12 12:50:00;;;;;;;2.90;2.70;;;16.00;53.40;;;;;;4972345;28;20027;-76
2021/05/12 12:52:40;;;;;;;4.57;3.03;;;16.00;53.70;;;;;;4972375;28;20026;-77
2021/05/12 12:55:13;;;;;;;3.53;2.95;;;15.90;53.90;;;;;;4972132;28;20077;-77
2021/05/12 12:57:45;;;;;;;5.28;3.25;;;16.00;54.40;;;;;;4972232;28;20077;-76
2021/05/12 13:00:12;;;;;;;4.28;3.50;;;16.00;54.50;;;;;;4972226;28;20023;-78
2021/05/12 13:02:40;;;;;;;5.80;2.90;;;16.10;54.30;;;;;;4972244;28;20393;-75
2021/05/12 13:05:10;;;;;;;3.63;2.92;;;16.30;54.30;;;;;;4972523;28;20023;-76